»·PEaware :: SKW3100 KPSP-KPHX

SKW3100 :: KPSP-KPHX

FLIGHT INFORMATION

Flight Status: Arrived
Operator:
SkyWest Airlines
More flights by this operator :: More flights under this callsign
Pilot: Alfredo R. (12181)
Aircraft: CANADAIR CL-600 CRJ-200
(CRJ2)
More flights by this aircraft type
Origin: KPSP Palm Springs Intl
United States
Destination: KPHX Phoenix Sky Harbor Intl
United States
More flights between these airports :: More routes between these airports
Route: +CATH1 PSP J50 BLH HYDRR1
File this flight plan on PilotEdge
Remarks:
Altitude:
(Current/Filed)
250ft
Speed:
(Current/Filed)
425kts
Departed: 05-Jul-20 04:59 PM
Arrived: 05-Jul-20 05:52 PM
Distance/Time
Traveled:
227nm/0:52
Distance/Time
To Go:
Arrived

Flight Plot

Page will automatically refresh every two minutes.

Flight plan parsing failed; only flown route is shown


Map Options




Map Legend


Flown Route
Filed Route
Departure Airport
Arrival Airport
Navaid (VOR, NDB)
Fix

Horizontal Profiles

Position Reports

Time Latitude Longitude Heading Altitude Ground
Speed
05-Jul-20 16:16 33.822557 -116.506238 324 412ft 0kts
05-Jul-20 16:17 33.822557 -116.506238 324 412ft 0kts
05-Jul-20 16:18 33.822557 -116.506238 324 412ft 0kts
05-Jul-20 16:19 33.822557 -116.506238 324 412ft 0kts
05-Jul-20 16:20 33.822557 -116.506238 324 412ft 0kts
05-Jul-20 16:21 33.822557 -116.506238 324 412ft 0kts
05-Jul-20 16:22 33.822557 -116.506238 324 412ft 0kts
05-Jul-20 16:23 33.822557 -116.506238 324 412ft 0kts
05-Jul-20 16:24 33.822557 -116.506238 324 412ft 0kts
05-Jul-20 16:25 33.822557 -116.506238 324 412ft 0kts
05-Jul-20 16:26 33.822557 -116.506238 324 412ft 0kts
05-Jul-20 16:27 33.822557 -116.506238 324 412ft 0kts
05-Jul-20 16:28 33.822557 -116.506238 324 412ft 0kts
05-Jul-20 16:29 33.822557 -116.506238 324 412ft 0kts
05-Jul-20 16:30 33.822557 -116.506238 324 412ft 0kts
05-Jul-20 16:31 33.822557 -116.506238 324 412ft 0kts
05-Jul-20 16:32 33.822557 -116.506238 324 412ft 0kts
05-Jul-20 16:33 33.822557 -116.506238 324 412ft 0kts
05-Jul-20 16:34 33.822557 -116.506238 324 412ft 0kts
05-Jul-20 16:35 33.822557 -116.506238 324 412ft 0kts
05-Jul-20 16:36 33.822557 -116.506238 324 412ft 0kts
05-Jul-20 16:37 33.822557 -116.506238 324 412ft 0kts
05-Jul-20 16:38 33.822557 -116.506238 324 412ft 0kts
05-Jul-20 16:39 33.822557 -116.506238 324 412ft 0kts
05-Jul-20 16:40 33.822557 -116.506238 324 412ft 0kts
05-Jul-20 16:41 33.822557 -116.506238 324 412ft 0kts
05-Jul-20 16:42 33.822560 -116.506240 324 412ft 0kts
05-Jul-20 16:43 33.822250 -116.505995 324 411ft 2kts
05-Jul-20 16:44 33.821944 -116.505851 34 410ft 5kts
05-Jul-20 16:45 33.822499 -116.505140 54 409ft 0kts
05-Jul-20 16:46 33.822499 -116.505140 54 409ft 0kts
05-Jul-20 16:47 33.822499 -116.505140 54 409ft 0kts
05-Jul-20 16:48 33.822499 -116.505140 54 409ft 0kts
05-Jul-20 16:49 33.822499 -116.505140 54 409ft 0kts
05-Jul-20 16:50 33.822499 -116.505140 54 409ft 0kts
05-Jul-20 16:51 33.822662 -116.504868 53 409ft 0kts
05-Jul-20 16:52 33.823056 -116.503920 105 409ft 6kts
05-Jul-20 16:53 33.820450 -116.501487 144 403ft 16kts
05-Jul-20 16:54 33.818525 -116.499006 90 396ft 2kts
05-Jul-20 16:55 33.818524 -116.498956 90 396ft 0kts
05-Jul-20 16:56 33.818703 -116.498346 44 396ft 5kts
05-Jul-20 16:57 33.820898 -116.499867 323 400ft 24kts
05-Jul-20 16:58 33.846860 -116.524899 321 1236ft 174kts
05-Jul-20 17:00 33.891699 -116.565708 336 3675ft 227kts
05-Jul-20 17:01 33.935133 -116.522030 95 6258ft 262kts
05-Jul-20 17:02 33.888408 -116.455052 128 8799ft 273kts
05-Jul-20 17:03 33.849743 -116.373504 95 11323ft 293kts
05-Jul-20 17:04 33.838396 -116.270799 99 13532ft 331kts
05-Jul-20 17:05 33.821769 -116.161608 99 15534ft 327kts
05-Jul-20 17:06 33.804855 -116.052826 99 17546ft 339kts
05-Jul-20 17:07 33.787078 -115.939120 99 19549ft 353kts
05-Jul-20 17:08 33.768146 -115.818887 100 21376ft 375kts
05-Jul-20 17:09 33.748070 -115.692475 100 22725ft 402kts
05-Jul-20 17:10 33.725698 -115.552516 100 23060ft 448kts
05-Jul-20 17:11 33.701627 -115.403043 100 24076ft 451kts
05-Jul-20 17:12 33.677751 -115.255982 101 24761ft 451kts
05-Jul-20 17:13 33.653703 -115.109009 101 24762ft 453kts
05-Jul-20 17:14 33.629273 -114.960850 101 24761ft 451kts
05-Jul-20 17:15 33.604788 -114.813505 101 24761ft 447kts
05-Jul-20 17:15 33.582909 -114.693396 103 24762ft 447kts
05-Jul-20 17:17 33.550131 -114.524827 103 24761ft 445kts
05-Jul-20 17:18 33.521939 -114.380957 103 24760ft 439kts
05-Jul-20 17:18 33.499041 -114.264776 103 24758ft 423kts
05-Jul-20 17:20 33.468062 -114.108584 103 24761ft 407kts
05-Jul-20 17:20 33.446098 -113.998860 103 24145ft 409kts
05-Jul-20 17:21 33.419943 -113.868556 103 22852ft 393kts
05-Jul-20 17:22 33.394551 -113.742551 103 21648ft 388kts
05-Jul-20 17:23 33.369131 -113.617068 104 20445ft 386kts
05-Jul-20 17:24 33.343657 -113.492083 104 19243ft 385kts
05-Jul-20 17:25 33.321274 -113.368009 102 18046ft 380kts
05-Jul-20 17:26 33.300023 -113.245414 103 16839ft 371kts
05-Jul-20 17:27 33.282447 -113.126111 101 15614ft 352kts
05-Jul-20 17:28 33.275897 -113.013815 89 14555ft 325kts
05-Jul-20 17:29 33.278427 -112.906922 89 13848ft 325kts
05-Jul-20 17:30 33.282656 -112.799347 84 13149ft 319kts
05-Jul-20 17:31 33.292532 -112.693897 83 12444ft 316kts
05-Jul-20 17:32 33.302264 -112.589786 83 11746ft 315kts
05-Jul-20 17:33 33.311384 -112.491234 83 11004ft 287kts
05-Jul-20 17:34 33.320662 -112.390098 83 10346ft 304kts
05-Jul-20 17:35 33.329768 -112.290468 83 9316ft 281kts
05-Jul-20 17:36 33.337801 -112.201975 84 8508ft 269kts
05-Jul-20 17:37 33.345498 -112.116418 83 8481ft 253kts
05-Jul-20 17:38 33.346776 -112.031610 91 7902ft 251kts
05-Jul-20 17:39 33.346402 -111.949542 89 7074ft 242kts
05-Jul-20 17:40 33.347845 -111.868367 88 7092ft 247kts
05-Jul-20 17:41 33.349265 -111.786350 88 7092ft 245kts
05-Jul-20 17:42 33.350720 -111.705095 88 7103ft 247kts
05-Jul-20 17:43 33.385490 -111.641554 17 6290ft 219kts
05-Jul-20 17:44 33.436681 -111.662465 297 5304ft 204kts
05-Jul-20 17:45 33.445330 -111.724306 274 5103ft 185kts
05-Jul-20 17:46 33.443097 -111.786944 263 4879ft 202kts
05-Jul-20 17:47 33.441109 -111.849833 267 3677ft 176kts
05-Jul-20 17:48 33.440648 -111.903314 268 2836ft 143kts
05-Jul-20 17:49 33.440756 -111.949766 268 1930ft 141kts
05-Jul-20 17:50 33.440873 -111.996445 267 1155ft 133kts
05-Jul-20 17:51 33.440220 -112.013562 190 1136ft 0kts
05-Jul-20 17:52 33.440173 -112.013574 193 1136ft 2kts
05-Jul-20 17:53 33.439004 -112.013502 88 1136ft 10kts
05-Jul-20 17:54 33.438993 -112.009165 89 1136ft 15kts
05-Jul-20 17:55 33.439016 -112.003419 89 1136ft 16kts
05-Jul-20 17:56 33.439021 -111.998843 89 1136ft 14kts
05-Jul-20 17:57 33.438482 -111.996242 238 1136ft 5kts
05-Jul-20 17:58 33.438304 -111.996504 228 1136ft 0kts
05-Jul-20 17:59 33.438304 -111.996504 228 1136ft 0kts
05-Jul-20 18:00 33.438304 -111.996504 228 1136ft 0kts
05-Jul-20 18:01 33.438304 -111.996504 228 1136ft 0kts

Navigation Log

Ident Type
Flight plan parsing failed, navigation log unavailable